Aeroporto :
LOGIN :

Iscrizione | Disclaimer

   EN    FR    IT 

 










Sommario :    VFR   VFR Marginale   IFR   IFR Intensivo   IFR Molto Intensivo
Visibilità : 
Base nubi : 
>= 8 km
>= 3000ft
5 / 8 km
1000 / 3000 ft
1500m / 5 km
500 / 1000 ft
800 / 1500m
200 / 500 ft
< 800m
< 200 ft
Simboli :   Temporali  Nebbia  Neve Forte  Precipitazioni Forti  Vento > 20 kt
SIGMETs :   Varie  Temporali  Ghiacco  Turbolenza  Onda orograficha  Ceneri Vulcaniche







- Altitudine del aeroporto : 171 ft
- Codice IATA : EGC
- Carte del aeroporto


LFBE - Bergerac

ULTIMO METAR :
  • 142130Z AUTO 07004KT 9999 BKN040 14/12 Q1020

METARs OBSOLETI :
  • 142100Z AUTO 09005KT 9999 OVC041 14/12 Q1020 TEMPO 0500 FG VV///
  • 142030Z AUTO 10005KT 9999 OVC042 14/13 Q1020 TEMPO 0500 FG VV///
  • 142000Z AUTO 09004KT 9000 OVC044 13/13 Q1020 TEMPO 2000 BR
  • 141930Z AUTO 10003KT 9999 OVC045 13/13 Q1021 TEMPO 2000 BR
  • 141900Z AUTO 06002KT 7000 OVC045 12/12 Q1021 TEMPO 2000 BR

TAF AMD TAF LFBE
Valido dal 14 a 18 ore il 15 a 18 ore UTC


141831Z 1418/1518 11005KT 6000 SCT040
PROB40 1418/1509 2000 BR
PROB40
TEMPO 1422/1509 0500 FG VV///
Nessun NOTAM noto per questo aeroporto.



MetMap, La meteo Aeronautica in un colpo d'occhio ! - Copyright ORBIFLY Dicembre 2007 - Disclaimer

ORBIFLY MET'MAP TEAM :

Programmazione e sviluppo : Alexandra Zaïnal
Concezione e sviluppo : Baudouin d'Aumeries
Co-Programmazione e sviluppo : Marc-Olivier Méhu
Supporto tecnico e logistico : Manuel Goepfert
Aiuto per la traduzione : Arnaldo La Scala

Contatto : metmap@orbifly.com




FONTI E CREDITI :

   NOAA